Time;durP1;ratioP1;P1;durP2;ratioP2;P2;SDS_P1;SDS_P2;PMS_P1;PMS_P2;Temp;Humidity;BMP_temperature;BMP_pressure;BME280_temperature;BME280_humidity;BME280_pressure;Samples;Min_cycle;Max_cycle;Signal;HPM_P1;HPM_P2
2023/12/21 00:00:03;;;;;;;0.80;0.80;;;8.80;99.90;;;;;;5094963;28;20122;-75
2023/12/21 00:02:29;;;;;;;0.80;0.80;;;9.70;99.90;;;;;;5095834;28;20043;-74
2023/12/21 00:04:55;;;;;;;0.90;0.90;;;8.80;99.90;;;;;;5095851;28;20040;-74
2023/12/21 00:07:20;;;;;;;0.80;0.80;;;8.80;99.90;;;;;;5095930;28;20128;-72
2023/12/21 00:09:46;;;;;;;0.80;0.80;;;8.80;99.90;;;;;;5096116;28;20036;-74
2023/12/21 00:12:12;;;;;;;0.90;0.90;;;8.90;99.90;;;;;;5095775;28;20043;-73
2023/12/21 00:14:38;;;;;;;0.90;0.90;;;8.80;99.90;;;;;;5095614;28;20844;-73
2023/12/21 00:17:03;;;;;;;0.90;0.90;;;8.80;99.90;;;;;;5095701;28;20032;-71
2023/12/21 00:19:29;;;;;;;0.90;0.90;;;8.80;99.90;;;;;;5095661;28;20052;-72
2023/12/21 00:21:55;;;;;;;0.90;0.90;;;8.80;99.90;;;;;;5095552;28;20086;-72
2023/12/21 00:24:20;;;;;;;0.80;0.80;;;8.90;99.90;;;;;;5094539;28;20040;-75
2023/12/21 00:26:46;;;;;;;0.85;0.85;;;8.90;99.90;;;;;;5095429;28;20039;-73
2023/12/21 00:29:13;;;;;;;0.85;0.85;;;8.90;99.90;;;;;;5095397;28;20082;-72
2023/12/21 00:31:38;;;;;;;1.00;1.00;;;8.90;99.90;;;;;;5095540;28;20055;-71
2023/12/21 00:34:05;;;;;;;0.80;0.80;;;8.80;99.90;;;;;;5095264;28;20032;-74
2023/12/21 00:36:30;;;;;;;0.80;0.80;;;8.90;99.90;;;;;;5095296;28;20048;-73
2023/12/21 00:38:56;;;;;;;0.80;0.80;;;8.90;99.90;;;;;;5095269;28;20464;-75
2023/12/21 00:41:21;;;;;;;0.90;0.90;;;8.90;99.90;;;;;;5095105;28;20039;-72
2023/12/21 00:43:47;;;;;;;0.90;0.90;;;8.90;99.90;;;;;;5095165;28;20123;-74
2023/12/21 00:46:12;;;;;;;0.90;0.90;;;8.90;99.90;;;;;;5095010;28;20032;-73
2023/12/21 00:48:38;;;;;;;0.85;0.85;;;8.90;99.90;;;;;;5095015;28;20097;-73
2023/12/21 00:51:05;;;;;;;1.17;1.08;;;8.90;99.90;;;;;;5094970;28;20036;-73
2023/12/21 00:53:31;;;;;;;0.93;0.93;;;9.30;99.90;;;;;;5094920;28;20036;-71
2023/12/21 00:55:57;;;;;;;0.80;0.80;;;8.90;99.90;;;;;;5095362;28;20058;-74
2023/12/21 00:58:22;;;;;;;0.90;0.90;;;8.90;99.90;;;;;;5094939;28;20490;-71
2023/12/21 01:00:48;;;;;;;0.82;0.82;;;8.90;99.90;;;;;;5094928;28;20123;-74
2023/12/21 01:03:13;;;;;;;1.38;1.27;;;8.90;99.90;;;;;;5094761;28;20356;-72
2023/12/21 01:05:39;;;;;;;0.80;0.80;;;9.00;99.90;;;;;;5094935;28;20035;-73
2023/12/21 01:08:06;;;;;;;0.80;0.80;;;8.90;99.90;;;;;;5095106;28;20044;-73
2023/12/21 01:10:33;;;;;;;0.90;0.90;;;8.90;99.90;;;;;;5094299;28;20459;-75
2023/12/21 01:12:59;;;;;;;0.90;0.90;;;8.90;99.90;;;;;;5094195;28;20044;-75
2023/12/21 01:15:24;;;;;;;0.90;0.90;;;9.70;99.90;;;;;;5094625;28;20040;-73
2023/12/21 01:17:50;;;;;;;0.85;0.85;;;9.00;99.90;;;;;;5094530;28;20379;-71
2023/12/21 01:20:16;;;;;;;0.80;0.80;;;9.00;99.90;;;;;;5094453;28;20036;-72
2023/12/21 01:22:42;;;;;;;0.90;0.90;;;9.00;99.90;;;;;;5094440;28;20047;-73
2023/12/21 01:25:07;;;;;;;0.85;0.85;;;9.00;99.90;;;;;;5094445;28;20036;-73
2023/12/21 01:27:33;;;;;;;0.88;0.88;;;9.00;99.90;;;;;;5094519;28;20080;-72
2023/12/21 01:29:58;;;;;;;0.80;0.80;;;9.60;99.90;;;;;;5094322;28;20036;-72
2023/12/21 01:32:24;;;;;;;1.00;1.00;;;9.00;99.90;;;;;;5093317;28;20093;-74
2023/12/21 01:34:50;;;;;;;1.05;0.90;;;8.90;99.90;;;;;;5094315;28;20483;-74
2023/12/21 01:37:15;;;;;;;0.88;0.88;;;9.00;99.90;;;;;;5093977;28;20497;-73
2023/12/21 01:39:41;;;;;;;0.90;0.90;;;9.30;99.90;;;;;;5094641;28;20048;-72
2023/12/21 01:42:07;;;;;;;0.90;0.90;;;9.00;99.90;;;;;;5094261;28;20061;-72
2023/12/21 01:44:32;;;;;;;0.80;0.80;;;9.00;99.90;;;;;;5094102;28;20540;-74
2023/12/21 01:46:58;;;;;;;2.78;2.58;;;9.00;99.90;;;;;;5094131;28;20042;-73
2023/12/21 01:49:24;;;;;;;0.80;0.80;;;9.10;99.90;;;;;;5093978;28;20476;-71
2023/12/21 01:51:50;;;;;;;0.90;0.90;;;9.00;99.90;;;;;;5094001;28;20035;-74
2023/12/21 01:54:17;;;;;;;0.90;0.90;;;9.40;99.90;;;;;;5093917;28;20040;-73
2023/12/21 01:56:42;;;;;;;0.90;0.90;;;8.90;99.90;;;;;;5094253;28;20040;-72
2023/12/21 01:59:08;;;;;;;0.90;0.90;;;9.00;99.90;;;;;;5094212;28;20460;-72
2023/12/21 02:01:35;;;;;;;0.80;0.80;;;9.10;99.90;;;;;;5093908;28;20036;-72
2023/12/21 02:04:01;;;;;;;0.90;0.90;;;9.00;99.90;;;;;;5093751;28;20083;-73
2023/12/21 02:06:27;;;;;;;0.90;0.90;;;9.00;99.90;;;;;;5092591;28;20149;-73
2023/12/21 02:08:52;;;;;;;0.80;0.80;;;9.00;99.90;;;;;;5093785;28;20422;-73
2023/12/21 02:11:18;;;;;;;0.80;0.80;;;9.00;99.90;;;;;;5093755;28;20044;-72
2023/12/21 02:13:43;;;;;;;0.80;0.80;;;9.00;99.90;;;;;;5093674;28;20375;-75
2023/12/21 02:16:22;;;;;;;0.90;0.90;;;9.20;99.90;;;;;;5093659;28;20040;-74
2023/12/21 02:18:49;;;;;;;0.80;0.80;;;10.00;99.90;;;;;;5093098;28;20059;-71
2023/12/21 02:21:15;;;;;;;;;;;9.00;99.90;;;;;;5093217;28;20071;-71
2023/12/21 02:23:42;;;;;;;1.00;1.00;;;9.00;99.90;;;;;;5093670;28;20356;-71
2023/12/21 02:26:09;;;;;;;0.90;0.90;;;9.00;99.90;;;;;;5096480;28;20043;-72
2023/12/21 02:28:34;;;;;;;0.90;0.90;;;9.00;99.90;;;;;;5096523;28;20043;-71
2023/12/21 02:31:00;;;;;;;1.25;1.20;;;9.20;99.90;;;;;;5096832;28;20118;-72
2023/12/21 02:33:25;;;;;;;2.50;2.30;;;9.10;99.90;;;;;;5096372;28;20468;-71
2023/12/21 02:35:51;;;;;;;1.00;1.00;;;9.50;99.90;;;;;;5096325;28;20043;-71
2023/12/21 02:38:17;;;;;;;1.05;0.95;;;9.70;99.90;;;;;;5095945;28;20032;-71
2023/12/21 02:40:42;;;;;;;1.48;1.38;;;9.00;99.90;;;;;;5096427;28;20061;-74
2023/12/21 02:43:08;;;;;;;0.90;0.90;;;9.00;99.90;;;;;;5096118;28;20066;-72
2023/12/21 02:45:33;;;;;;;0.90;0.90;;;9.00;99.90;;;;;;5095684;28;20036;-73
2023/12/21 02:47:59;;;;;;;0.90;0.90;;;9.00;99.90;;;;;;5096061;28;20043;-74
2023/12/21 02:50:24;;;;;;;0.80;0.80;;;9.00;99.90;;;;;;5095946;28;20044;-71
2023/12/21 02:52:50;;;;;;;1.20;1.10;;;9.00;99.90;;;;;;5096019;28;20050;-71
2023/12/21 02:55:15;;;;;;;1.10;1.00;;;9.20;99.90;;;;;;5095806;28;20410;-73
2023/12/21 02:57:41;;;;;;;0.80;0.80;;;9.00;99.90;;;;;;5095939;28;20119;-71
2023/12/21 03:00:08;;;;;;;0.80;0.80;;;9.00;99.90;;;;;;5095890;28;20036;-71
2023/12/21 03:02:33;;;;;;;0.80;0.80;;;9.00;99.90;;;;;;5095699;28;20066;-73
2023/12/21 03:04:59;;;;;;;0.88;0.88;;;9.70;99.90;;;;;;5096051;28;20035;-73
2023/12/21 03:07:24;;;;;;;0.90;0.90;;;9.00;99.90;;;;;;5095747;28;20040;-71
2023/12/21 03:09:50;;;;;;;0.80;0.80;;;9.20;99.90;;;;;;5095585;28;20203;-70
2023/12/21 03:12:16;;;;;;;0.88;0.88;;;9.40;99.90;;;;;;5095552;28;20040;-72
2023/12/21 03:14:41;;;;;;;1.20;1.10;;;8.90;99.90;;;;;;5095604;28;20036;-72
2023/12/21 03:17:10;;;;;;;0.90;0.90;;;8.90;99.90;;;;;;5056759;28;1058564;-72
2023/12/21 03:19:36;;;;;;;1.00;1.00;;;8.90;99.90;;;;;;5096834;28;20044;-71
2023/12/21 03:22:01;;;;;;;0.90;0.90;;;8.90;99.90;;;;;;5096651;28;20081;-73
2023/12/21 03:24:27;;;;;;;0.90;0.90;;;9.00;99.90;;;;;;5096848;28;20031;-74
2023/12/21 03:26:52;;;;;;;0.80;0.80;;;9.80;99.90;;;;;;5096554;28;20035;-73
2023/12/21 03:29:21;;;;;;;0.90;0.90;;;8.90;99.90;;;;;;5096752;28;20040;-73
2023/12/21 03:31:46;;;;;;;0.90;0.90;;;8.90;99.90;;;;;;5096371;28;20044;-74
2023/12/21 03:34:12;;;;;;;0.80;0.80;;;9.00;99.90;;;;;;5096547;28;20036;-71
2023/12/21 03:36:37;;;;;;;0.90;0.90;;;8.80;99.90;;;;;;5096763;28;20105;-72
2023/12/21 03:39:03;;;;;;;1.30;1.20;;;8.90;99.90;;;;;;5096746;28;20039;-72
2023/12/21 03:41:28;;;;;;;0.90;0.90;;;8.90;99.90;;;;;;5096404;28;20429;-72
2023/12/21 03:43:55;;;;;;;0.90;0.90;;;10.20;99.90;;;;;;5096313;28;20032;-71
2023/12/21 03:46:21;;;;;;;1.10;1.00;;;9.00;99.90;;;;;;5096177;28;20173;-73
2023/12/21 03:48:46;;;;;;;1.00;0.90;;;9.00;99.90;;;;;;5096226;28;20080;-71
2023/12/21 03:51:12;;;;;;;0.90;0.90;;;9.10;99.90;;;;;;5096053;28;20036;-74
2023/12/21 03:53:37;;;;;;;1.10;1.00;;;8.90;99.90;;;;;;5096169;28;20040;-73
2023/12/21 03:56:03;;;;;;;1.40;1.30;;;8.90;99.90;;;;;;5096314;28;20040;-73
2023/12/21 03:58:29;;;;;;;0.90;0.90;;;8.90;99.90;;;;;;5096215;28;20476;-72
2023/12/21 04:00:54;;;;;;;0.90;0.90;;;9.10;99.90;;;;;;5095925;28;20129;-73
2023/12/21 04:03:20;;;;;;;1.08;1.00;;;9.60;99.90;;;;;;5096416;28;20127;-73
2023/12/21 04:05:45;;;;;;;0.95;0.93;;;9.70;99.90;;;;;;5095916;28;20039;-74
2023/12/21 04:08:11;;;;;;;1.00;1.00;;;8.90;99.90;;;;;;5095886;28;20076;-71
2023/12/21 04:10:37;;;;;;;1.10;1.00;;;9.70;99.90;;;;;;5095870;28;20040;-71
2023/12/21 04:13:02;;;;;;;0.90;0.90;;;9.00;99.90;;;;;;5095811;28;20035;-71
2023/12/21 04:15:28;;;;;;;1.08;0.98;;;9.00;99.90;;;;;;5095612;28;20036;-72
2023/12/21 04:17:54;;;;;;;0.88;0.88;;;9.00;99.90;;;;;;5095325;28;20044;-72
2023/12/21 04:20:19;;;;;;;0.90;0.90;;;8.90;99.90;;;;;;5095269;28;20048;-72
2023/12/21 04:22:45;;;;;;;0.93;0.93;;;9.00;99.90;;;;;;5095571;28;20044;-73
2023/12/21 04:25:10;;;;;;;0.90;0.90;;;9.00;99.90;;;;;;5095605;28;20064;-71
2023/12/21 04:27:36;;;;;;;1.08;0.98;;;9.00;99.90;;;;;;5095346;28;20085;-73
2023/12/21 04:30:03;;;;;;;0.90;0.90;;;9.00;99.90;;;;;;5095460;28;20353;-73
2023/12/21 04:32:28;;;;;;;0.90;0.90;;;9.00;99.90;;;;;;5096134;28;20120;-71
2023/12/21 04:34:54;;;;;;;1.20;1.10;;;9.00;99.90;;;;;;5095342;28;20123;-74
2023/12/21 04:37:20;;;;;;;1.10;1.00;;;9.10;99.90;;;;;;5095386;28;20040;-73
2023/12/21 04:39:46;;;;;;;1.00;1.00;;;9.10;99.90;;;;;;5095270;28;20048;-71
2023/12/21 04:42:12;;;;;;;1.10;1.00;;;9.00;99.90;;;;;;5095410;28;20040;-72
2023/12/21 04:44:37;;;;;;;1.27;1.17;;;9.10;99.90;;;;;;5094089;28;20423;-73
2023/12/21 04:47:08;;;;;;;0.88;0.88;;;9.00;99.90;;;;;;5094183;28;20089;-74
2023/12/21 04:49:34;;;;;;;1.60;1.50;;;9.00;99.90;;;;;;5094845;28;20483;-72
2023/12/21 04:52:00;;;;;;;1.00;0.98;;;9.00;99.90;;;;;;5094956;28;20109;-73
2023/12/21 04:54:25;;;;;;;1.00;1.00;;;9.00;99.90;;;;;;5094955;28;20098;-73
2023/12/21 04:56:51;;;;;;;1.10;1.00;;;9.80;99.90;;;;;;5094932;28;20040;-74
2023/12/21 04:59:16;;;;;;;0.93;0.93;;;9.00;99.90;;;;;;5094574;28;20032;-72
2023/12/21 05:01:42;;;;;;;0.90;0.90;;;9.00;99.90;;;;;;5094469;28;20090;-73
2023/12/21 05:04:10;;;;;;;0.98;0.98;;;9.00;99.90;;;;;;5094810;28;20090;-72
2023/12/21 05:06:35;;;;;;;1.10;1.00;;;9.00;99.90;;;;;;5094647;28;20046;-71
2023/12/21 05:09:01;;;;;;;1.00;1.00;;;9.00;99.90;;;;;;5094700;28;20119;-73
2023/12/21 05:11:27;;;;;;;0.90;0.90;;;9.10;99.90;;;;;;5094598;28;20078;-73
2023/12/21 05:13:53;;;;;;;3.53;1.73;;;9.00;99.90;;;;;;5094418;28;20036;-73
2023/12/21 05:16:18;;;;;;;0.98;0.90;;;9.00;99.90;;;;;;5094496;28;20034;-74
2023/12/21 05:18:44;;;;;;;0.90;0.90;;;9.00;99.90;;;;;;5094738;28;20052;-70
2023/12/21 05:21:09;;;;;;;0.90;0.90;;;9.10;99.90;;;;;;5094569;28;20536;-74
2023/12/21 05:23:35;;;;;;;0.90;0.90;;;9.60;99.90;;;;;;5094720;28;20040;-75
2023/12/21 05:26:01;;;;;;;1.20;1.10;;;9.00;99.90;;;;;;5094315;28;20097;-73
2023/12/21 05:28:26;;;;;;;1.05;0.98;;;9.00;99.90;;;;;;5094406;28;20083;-70
2023/12/21 05:30:52;;;;;;;1.00;0.90;;;9.20;99.90;;;;;;5094276;28;20032;-71
2023/12/21 05:33:18;;;;;;;0.90;0.90;;;9.50;99.90;;;;;;5094306;28;20123;-71
2023/12/21 05:35:43;;;;;;;1.10;1.00;;;9.80;99.90;;;;;;5094163;28;20042;-74
2023/12/21 05:38:09;;;;;;;1.35;1.25;;;9.00;99.90;;;;;;5094473;28;20043;-73
2023/12/21 05:40:35;;;;;;;1.30;1.00;;;9.20;99.90;;;;;;5094178;28;20148;-73
2023/12/21 05:43:00;;;;;;;0.90;0.90;;;9.70;99.90;;;;;;5093899;28;20048;-71
2023/12/21 05:45:26;;;;;;;1.10;1.05;;;9.00;99.90;;;;;;5094040;28;20054;-72
2023/12/21 05:47:51;;;;;;;0.90;0.90;;;9.30;99.90;;;;;;5093819;28;20032;-73
2023/12/21 05:50:17;;;;;;;0.90;0.90;;;9.00;99.90;;;;;;5094037;28;20044;-71
2023/12/21 05:52:43;;;;;;;4.22;2.03;;;9.00;99.90;;;;;;5094168;28;20535;-74
2023/12/21 05:55:14;;;;;;;1.08;1.00;;;9.00;99.90;;;;;;5092995;28;20488;-80
2023/12/21 05:57:40;;;;;;;1.10;1.00;;;9.00;99.90;;;;;;5092928;28;20044;-72
2023/12/21 06:00:06;;;;;;;1.00;0.97;;;9.30;99.90;;;;;;5093828;28;20036;-73
2023/12/21 06:02:32;;;;;;;1.00;0.90;;;9.00;99.90;;;;;;5093851;28;20321;-70
2023/12/21 06:04:58;;;;;;;0.90;0.90;;;9.00;99.90;;;;;;5093677;28;20082;-72
2023/12/21 06:07:23;;;;;;;0.90;0.90;;;9.00;99.90;;;;;;5094069;28;20047;-75
2023/12/21 06:09:50;;;;;;;1.10;1.00;;;9.30;99.90;;;;;;5093778;28;20044;-77
2023/12/21 06:12:15;;;;;;;1.50;1.40;;;9.00;99.90;;;;;;5093712;28;20044;-72
2023/12/21 06:14:42;;;;;;;1.30;1.20;;;10.20;99.90;;;;;;5093449;28;20044;-74
2023/12/21 06:17:09;;;;;;;0.88;0.88;;;9.00;99.90;;;;;;5094031;28;20036;-74
2023/12/21 06:19:35;;;;;;;1.10;1.00;;;9.00;99.90;;;;;;5094342;28;20055;-74
2023/12/21 06:22:00;;;;;;;0.90;0.90;;;9.00;99.90;;;;;;5093982;28;20044;-75
2023/12/21 06:24:26;;;;;;;0.88;0.88;;;9.00;99.90;;;;;;5093749;28;20047;-72
2023/12/21 06:26:52;;;;;;;0.80;0.80;;;9.10;99.90;;;;;;5093615;28;20036;-73
2023/12/21 06:29:17;;;;;;;0.90;0.90;;;9.10;99.90;;;;;;5093651;28;20044;-73
2023/12/21 06:31:43;;;;;;;1.00;1.00;;;9.10;99.90;;;;;;5093811;28;20044;-73
2023/12/21 06:34:08;;;;;;;0.90;0.90;;;9.00;99.90;;;;;;5094059;28;20038;-73
2023/12/21 06:36:34;;;;;;;2.35;2.08;;;9.80;99.90;;;;;;5093526;28;20071;-72
2023/12/21 06:39:00;;;;;;;0.88;0.88;;;8.90;99.90;;;;;;5093590;28;20072;-72
2023/12/21 06:41:27;;;;;;;0.90;0.90;;;9.10;99.90;;;;;;5093558;28;20032;-73
2023/12/21 06:43:52;;;;;;;0.90;0.90;;;9.10;99.90;;;;;;5093102;28;20506;-74
2023/12/21 06:46:20;;;;;;;0.90;0.90;;;9.30;99.90;;;;;;5093663;28;20075;-73
2023/12/21 06:48:45;;;;;;;1.10;1.00;;;9.10;99.90;;;;;;5093487;28;20051;-73
2023/12/21 06:51:12;;;;;;;0.90;0.90;;;9.10;99.90;;;;;;5093709;28;20357;-74
2023/12/21 06:53:39;;;;;;;0.90;0.90;;;9.10;99.90;;;;;;5093527;28;20044;-72
2023/12/21 06:56:05;;;;;;;0.82;0.82;;;9.10;99.90;;;;;;5093413;28;20424;-73
2023/12/21 06:58:30;;;;;;;2.25;1.77;;;9.20;99.90;;;;;;5093247;28;20048;-73
2023/12/21 07:00:56;;;;;;;0.80;0.80;;;9.30;99.90;;;;;;5094049;28;20039;-73
2023/12/21 07:03:22;;;;;;;0.90;0.90;;;9.20;99.90;;;;;;5093207;28;20043;-71
2023/12/21 07:05:50;;;;;;;1.30;1.20;;;9.20;99.90;;;;;;5093559;28;20302;-70
2023/12/21 07:08:17;;;;;;;0.90;0.90;;;9.20;99.90;;;;;;5093293;28;20418;-72
2023/12/21 07:10:43;;;;;;;0.90;0.90;;;9.30;99.90;;;;;;5095812;28;20036;-69
2023/12/21 07:13:09;;;;;;;0.90;0.90;;;9.10;99.90;;;;;;5096945;28;20048;-71
2023/12/21 07:15:35;;;;;;;0.90;0.90;;;9.20;99.90;;;;;;5097291;28;20040;-71
2023/12/21 07:18:00;;;;;;;0.90;0.90;;;9.80;99.90;;;;;;5097184;28;20055;-73
2023/12/21 07:20:28;;;;;;;2.50;2.35;;;9.20;99.90;;;;;;5096794;28;20050;-70
2023/12/21 07:22:54;;;;;;;0.90;0.90;;;9.10;99.90;;;;;;5096746;28;20040;-70
2023/12/21 07:25:19;;;;;;;2.35;1.35;;;9.60;99.90;;;;;;5096676;28;20036;-73
2023/12/21 07:27:45;;;;;;;1.00;0.93;;;9.30;99.90;;;;;;5096653;28;20028;-72
2023/12/21 07:30:11;;;;;;;0.90;0.90;;;9.10;99.90;;;;;;5096606;28;20117;-70
2023/12/21 07:32:37;;;;;;;0.90;0.90;;;9.10;99.90;;;;;;5097002;28;20040;-73
2023/12/21 07:35:02;;;;;;;0.85;0.85;;;9.10;99.90;;;;;;5096572;28;20380;-74
2023/12/21 07:37:28;;;;;;;1.25;1.00;;;9.10;99.90;;;;;;5096694;28;20036;-72
2023/12/21 07:39:54;;;;;;;1.17;1.08;;;9.10;99.90;;;;;;5096464;28;20044;-78
2023/12/21 07:42:19;;;;;;;1.10;1.00;;;9.30;99.90;;;;;;5096365;28;20122;-72
2023/12/21 07:44:45;;;;;;;0.90;0.90;;;9.10;99.90;;;;;;5096253;28;20036;-72
2023/12/21 07:47:11;;;;;;;0.90;0.90;;;9.10;99.90;;;;;;5096179;28;20035;-73
2023/12/21 07:49:36;;;;;;;1.02;1.00;;;9.20;99.90;;;;;;5096346;28;20063;-73
2023/12/21 07:52:02;;;;;;;1.73;1.63;;;9.20;99.90;;;;;;5096282;28;20457;-74
2023/12/21 07:54:28;;;;;;;0.90;0.90;;;9.20;99.90;;;;;;5096212;28;20035;-73
2023/12/21 07:56:53;;;;;;;0.90;0.90;;;9.20;99.90;;;;;;5096241;28;20032;-73
2023/12/21 07:59:19;;;;;;;0.90;0.90;;;9.20;99.90;;;;;;5095932;28;20500;-75
2023/12/21 08:01:46;;;;;;;0.90;0.90;;;9.40;99.90;;;;;;5096046;28;20040;-76
2023/12/21 08:04:11;;;;;;;0.90;0.90;;;9.20;99.90;;;;;;5095732;28;20508;-77
2023/12/21 08:06:37;;;;;;;9.77;3.30;;;9.20;99.90;;;;;;5096332;28;20043;-76
2023/12/21 08:09:03;;;;;;;0.90;0.90;;;9.20;99.90;;;;;;5096158;28;20528;-79
2023/12/21 08:11:28;;;;;;;0.88;0.88;;;9.20;99.90;;;;;;5095916;28;20525;-78
2023/12/21 08:13:54;;;;;;;1.15;1.10;;;9.20;99.90;;;;;;5095702;28;20086;-74
2023/12/21 08:16:19;;;;;;;0.90;0.90;;;9.20;99.90;;;;;;5096238;28;20043;-74
2023/12/21 08:18:45;;;;;;;1.10;1.00;;;9.20;99.90;;;;;;5095756;28;20547;-73
2023/12/21 08:21:11;;;;;;;1.00;1.00;;;9.20;99.90;;;;;;5094479;28;20496;-75
2023/12/21 08:23:37;;;;;;;0.80;0.80;;;9.60;99.90;;;;;;5095480;28;20086;-73
2023/12/21 08:26:04;;;;;;;0.90;0.90;;;9.00;99.90;;;;;;5095676;28;20071;-73
2023/12/21 08:28:30;;;;;;;0.90;0.90;;;9.30;99.90;;;;;;5095570;28;20097;-73
2023/12/21 08:30:56;;;;;;;0.98;0.98;;;9.30;99.90;;;;;;5095130;28;20044;-74
2023/12/21 08:33:22;;;;;;;0.90;0.90;;;9.30;99.90;;;;;;5095031;28;20039;-73
2023/12/21 08:35:48;;;;;;;0.80;0.80;;;9.30;99.90;;;;;;5095466;28;20044;-72
2023/12/21 08:38:13;;;;;;;0.88;0.88;;;9.20;99.90;;;;;;5094344;28;20032;-73
2023/12/21 08:40:39;;;;;;;0.80;0.80;;;9.30;99.90;;;;;;5095242;28;20083;-75
2023/12/21 08:43:05;;;;;;;0.82;0.82;;;9.30;99.90;;;;;;5095228;28;20032;-73
2023/12/21 08:45:31;;;;;;;0.90;0.90;;;9.30;99.90;;;;;;5094750;28;20119;-73
2023/12/21 08:47:57;;;;;;;;;;;10.00;99.90;;;;;;5095753;28;20044;-74
2023/12/21 08:50:23;;;;;;;0.90;0.90;;;9.30;99.90;;;;;;5095453;28;20370;-74
2023/12/21 08:52:49;;;;;;;0.90;0.90;;;9.30;99.90;;;;;;5094212;28;20032;-74
2023/12/21 08:55:14;;;;;;;0.90;0.90;;;9.40;99.90;;;;;;5095085;28;20113;-78
2023/12/21 08:57:40;;;;;;;0.85;0.85;;;9.30;99.90;;;;;;5094687;28;20043;-74
2023/12/21 09:00:12;;;;;;;0.90;0.90;;;9.30;99.90;;;;;;5076984;28;20040;-77
2023/12/21 09:02:41;;;;;;;0.90;0.90;;;9.30;99.90;;;;;;5094583;28;20496;-74
2023/12/21 09:05:07;;;;;;;0.90;0.90;;;9.30;99.90;;;;;;5094785;28;20120;-75
2023/12/21 09:07:34;;;;;;;0.90;0.90;;;9.30;99.90;;;;;;5094679;28;20071;-75
2023/12/21 09:10:03;;;;;;;;;;;10.30;99.90;;;;;;5095186;28;20119;-73
2023/12/21 09:12:29;;;;;;;0.90;0.90;;;9.40;99.90;;;;;;5093644;28;19916;-76
2023/12/21 09:14:55;;;;;;;1.10;1.00;;;9.40;99.90;;;;;;5094597;28;20118;-73
2023/12/21 09:17:20;;;;;;;0.90;0.90;;;9.40;99.90;;;;;;5094308;28;20044;-74
2023/12/21 09:19:46;;;;;;;0.85;0.85;;;9.50;99.90;;;;;;5094633;28;20080;-75
2023/12/21 09:22:11;;;;;;;0.90;0.90;;;9.40;99.90;;;;;;5094524;28;20044;-76
2023/12/21 09:24:38;;;;;;;0.98;0.90;;;9.50;99.90;;;;;;5094187;28;20082;-75
2023/12/21 09:27:04;;;;;;;0.90;0.90;;;9.50;99.90;;;;;;5094298;28;20036;-76
2023/12/21 09:29:30;;;;;;;0.88;0.88;;;9.50;99.90;;;;;;5094370;28;20036;-75
2023/12/21 09:31:56;;;;;;;0.90;0.90;;;9.50;99.90;;;;;;5094754;28;20036;-74
2023/12/21 09:34:21;;;;;;;0.90;0.90;;;9.80;99.90;;;;;;5094177;28;20525;-73
2023/12/21 09:36:47;;;;;;;0.90;0.90;;;9.60;99.90;;;;;;5094311;28;20075;-75
2023/12/21 09:39:12;;;;;;;0.90;0.90;;;9.60;99.90;;;;;;5094235;28;20040;-74
2023/12/21 09:41:39;;;;;;;0.80;0.80;;;9.50;99.90;;;;;;5094157;28;20372;-75
2023/12/21 09:44:05;;;;;;;1.17;1.08;;;9.50;99.90;;;;;;5094080;28;20044;-71
2023/12/21 09:46:38;;;;;;;0.80;0.80;;;9.50;99.90;;;;;;5092871;28;20043;-72
2023/12/21 09:49:06;;;;;;;0.88;0.88;;;10.30;99.90;;;;;;5094129;28;20270;-73
2023/12/21 09:51:34;;;;;;;0.80;0.80;;;9.60;99.90;;;;;;5093165;28;20086;-90
2023/12/21 09:54:02;;;;;;;0.90;0.90;;;9.60;99.90;;;;;;5076343;28;20135;-92
2023/12/21 09:56:28;;;;;;;1.35;1.10;;;8.50;99.90;;;;;;5076309;28;20043;-89
2023/12/21 09:58:58;;;;;;;0.80;0.80;;;9.60;99.90;;;;;;5093604;28;20051;-87
2023/12/21 10:01:24;;;;;;;0.88;0.88;;;9.60;99.90;;;;;;5076284;28;20047;-89
2023/12/21 10:03:49;;;;;;;0.80;0.80;;;12.10;99.90;;;;;;5076570;28;20051;-89
2023/12/21 10:06:16;;;;;;;1.00;1.00;;;9.60;99.90;;;;;;5076543;28;20032;-88
2023/12/21 10:08:42;;;;;;;0.80;0.80;;;9.70;99.90;;;;;;5076133;28;20051;-79
2023/12/21 10:11:07;;;;;;;0.90;0.90;;;9.60;99.90;;;;;;5093513;28;20530;-77
2023/12/21 10:13:34;;;;;;;0.80;0.80;;;9.70;99.90;;;;;;5093893;28;20044;-78
2023/12/21 10:16:01;;;;;;;0.80;0.80;;;9.70;99.90;;;;;;5094153;28;20406;-77
2023/12/21 10:18:27;;;;;;;0.80;0.80;;;9.80;99.90;;;;;;5093694;28;20052;-75
2023/12/21 10:20:56;;;;;;;0.80;0.80;;;9.80;99.90;;;;;;5093768;28;20127;-78
2023/12/21 10:23:21;;;;;;;0.80;0.80;;;9.80;99.90;;;;;;5093771;28;20036;-77
2023/12/21 10:25:48;;;;;;;0.80;0.80;;;10.70;99.90;;;;;;5093638;28;20066;-78
2023/12/21 10:28:14;;;;;;;0.80;0.80;;;9.90;99.90;;;;;;5093645;28;20079;-74
2023/12/21 10:30:40;;;;;;;0.77;0.77;;;9.90;99.90;;;;;;5093651;28;20093;-77
2023/12/21 10:33:08;;;;;;;0.90;0.90;;;9.90;99.90;;;;;;5093527;28;20406;-76
2023/12/21 10:35:35;;;;;;;0.80;0.80;;;9.90;99.90;;;;;;5093643;28;20036;-73
2023/12/21 10:38:00;;;;;;;0.80;0.80;;;10.10;99.90;;;;;;5093549;28;20172;-75
2023/12/21 10:40:26;;;;;;;0.90;0.90;;;11.20;99.90;;;;;;5093577;28;20047;-75
2023/12/21 10:42:54;;;;;;;0.80;0.80;;;10.10;99.90;;;;;;5093878;28;20040;-74
2023/12/21 10:45:20;;;;;;;0.80;0.80;;;11.10;99.90;;;;;;5095816;28;20432;-74
2023/12/21 10:47:52;;;;;;;0.75;0.75;;;10.20;99.90;;;;;;5097466;28;20126;-74
2023/12/21 10:50:19;;;;;;;1.65;1.55;;;10.40;99.90;;;;;;5097118;28;20479;-74
2023/12/21 10:52:46;;;;;;;0.80;0.80;;;10.30;99.90;;;;;;5097326;28;20028;-73
2023/12/21 10:55:16;;;;;;;;;;;10.30;99.90;;;;;;5097752;28;20040;-73
2023/12/21 10:57:42;;;;;;;0.80;0.80;;;10.30;99.90;;;;;;5097268;28;20399;-74
2023/12/21 11:00:13;;;;;;;0.80;0.80;;;10.50;99.90;;;;;;5097208;28;20071;-78
2023/12/21 11:02:48;;;;;;;0.80;0.80;;;10.40;99.90;;;;;;5097113;28;20044;-73
2023/12/21 11:05:26;;;;;;;0.80;0.80;;;10.80;99.90;;;;;;5097005;28;20036;-75
2023/12/21 11:07:54;;;;;;;0.80;0.80;;;10.40;99.90;;;;;;5096987;28;20066;-81
2023/12/21 11:10:21;;;;;;;0.80;0.80;;;10.40;99.90;;;;;;5102152;28;20054;-79
2023/12/21 11:12:48;;;;;;;0.80;0.80;;;10.40;99.90;;;;;;5099331;28;20080;-78
2023/12/21 11:15:18;;;;;;;1.58;1.48;;;10.40;99.90;;;;;;5097032;28;20468;-74
2023/12/21 11:17:50;;;;;;;0.77;0.77;;;10.40;99.90;;;;;;5096901;28;20048;-76
2023/12/21 11:20:20;;;;;;;0.80;0.80;;;10.50;99.90;;;;;;5097076;28;20040;-75
2023/12/21 11:22:46;;;;;;;0.90;0.90;;;10.40;99.90;;;;;;5096606;28;20479;-72
2023/12/21 11:25:12;;;;;;;0.80;0.80;;;10.40;99.90;;;;;;5096694;28;20036;-75
2023/12/21 11:27:40;;;;;;;0.90;0.90;;;10.40;99.90;;;;;;5096683;28;20076;-75
2023/12/21 11:30:14;;;;;;;1.00;1.00;;;11.10;99.90;;;;;;5096640;28;20032;-75
2023/12/21 11:32:42;;;;;;;1.33;1.23;;;10.40;99.90;;;;;;5096613;28;20040;-74
2023/12/21 11:35:22;;;;;;;0.80;0.80;;;10.60;99.90;;;;;;5096909;28;20067;-76
2023/12/21 11:37:55;;;;;;;0.90;0.90;;;10.60;99.90;;;;;;5096280;28;20476;-73
2023/12/21 11:40:22;;;;;;;0.73;0.73;;;10.50;99.90;;;;;;5096443;28;20046;-72
2023/12/21 11:42:48;;;;;;;0.80;0.80;;;10.50;99.90;;;;;;5095097;28;20464;-73
2023/12/21 11:45:30;;;;;;;0.80;0.80;;;10.50;99.90;;;;;;5096236;28;20156;-73
2023/12/21 11:48:02;;;;;;;0.70;0.70;;;10.50;99.90;;;;;;5096616;28;20051;-74
2023/12/21 11:50:33;;;;;;;0.85;0.85;;;10.50;99.90;;;;;;5096284;28;20111;-74
2023/12/21 11:53:12;;;;;;;2.35;2.15;;;10.60;99.90;;;;;;5096504;28;20120;-77
2023/12/21 11:55:39;;;;;;;0.90;0.90;;;10.20;99.90;;;;;;5095704;28;20040;-77
2023/12/21 11:58:18;;;;;;;1.10;1.00;;;10.40;99.90;;;;;;5096210;28;20456;-77
2023/12/21 12:00:55;;;;;;;0.93;0.93;;;10.60;99.90;;;;;;5096167;28;20039;-77
2023/12/21 12:03:23;;;;;;;0.90;0.90;;;10.40;99.90;;;;;;5085571;28;20040;-77
2023/12/21 12:05:52;;;;;;;0.90;0.90;;;10.40;99.90;;;;;;5083271;28;20089;-75
2023/12/21 12:08:22;;;;;;;0.80;0.80;;;10.40;99.90;;;;;;5083427;28;20435;-72
2023/12/21 12:10:49;;;;;;;0.88;0.88;;;10.40;99.90;;;;;;5093040;28;20067;-75
2023/12/21 12:13:19;;;;;;;0.80;0.80;;;10.40;99.90;;;;;;5095694;28;20036;-74
2023/12/21 12:15:48;;;;;;;0.90;0.90;;;10.50;99.90;;;;;;5094825;28;20130;-76
2023/12/21 12:18:19;;;;;;;0.80;0.80;;;11.20;99.90;;;;;;5094883;28;20051;-77
2023/12/21 12:20:47;;;;;;;0.70;0.70;;;10.60;99.90;;;;;;5093143;28;20044;-77
2023/12/21 12:23:13;;;;;;;0.80;0.80;;;10.50;99.90;;;;;;5093140;28;20460;-75
2023/12/21 12:25:39;;;;;;;0.80;0.80;;;11.40;99.90;;;;;;5093356;28;20047;-74
2023/12/21 12:28:05;;;;;;;0.70;0.70;;;10.60;99.90;;;;;;5093315;28;20040;-74
2023/12/21 12:30:35;;;;;;;0.80;0.80;;;10.60;99.90;;;;;;5093255;28;20135;-76
2023/12/21 12:33:03;;;;;;;1.60;1.50;;;10.60;99.90;;;;;;5093710;28;20079;-76
2023/12/21 12:35:31;;;;;;;0.73;0.73;;;10.70;99.90;;;;;;5093592;28;20028;-75
2023/12/21 12:37:57;;;;;;;1.45;0.90;;;10.60;99.90;;;;;;5094921;28;20047;-75
2023/12/21 12:40:23;;;;;;;0.70;0.70;;;10.70;99.90;;;;;;5095336;28;20032;-76
2023/12/21 12:42:50;;;;;;;0.70;0.70;;;10.70;99.90;;;;;;5095103;28;20040;-75
2023/12/21 12:45:16;;;;;;;;;;;11.50;99.90;;;;;;5095400;28;20119;-77
2023/12/21 12:47:42;;;;;;;0.70;0.70;;;10.70;99.90;;;;;;5094653;28;20399;-76
2023/12/21 12:50:11;;;;;;;0.80;0.80;;;10.60;99.90;;;;;;5095028;28;20120;-74